sensor_id;sensor_type;location;lat;lon;timestamp;temperature;humidity
37956;DHT22;23776;51.592;7.180;2023-09-19T00:00:30;15.90;99.90
37956;DHT22;23776;51.592;7.180;2023-09-19T00:02:57;15.90;99.90
37956;DHT22;23776;51.592;7.180;2023-09-19T00:05:28;15.90;99.90
37956;DHT22;23776;51.592;7.180;2023-09-19T00:07:56;15.80;99.90
37956;DHT22;23776;51.592;7.180;2023-09-19T00:10:24;15.80;99.90
37956;DHT22;23776;51.592;7.180;2023-09-19T00:12:59;15.80;99.90
37956;DHT22;23776;51.592;7.180;2023-09-19T00:15:26;15.70;99.90
37956;DHT22;23776;51.592;7.180;2023-09-19T00:17:54;15.70;99.90
37956;DHT22;23776;51.592;7.180;2023-09-19T00:20:20;15.70;99.90
37956;DHT22;23776;51.592;7.180;2023-09-19T00:22:49;15.60;99.90
37956;DHT22;23776;51.592;7.180;2023-09-19T00:25:17;15.60;95.60
37956;DHT22;23776;51.592;7.180;2023-09-19T00:27:43;15.50;97.10
37956;DHT22;23776;51.592;7.180;2023-09-19T00:30:11;15.50;99.90
37956;DHT22;23776;51.592;7.180;2023-09-19T00:32:46;15.50;1.00
37956;DHT22;23776;51.592;7.180;2023-09-19T00:35:16;15.50;1.00
37956;DHT22;23776;51.592;7.180;2023-09-19T00:37:41;15.50;1.00
37956;DHT22;23776;51.592;7.180;2023-09-19T00:40:08;15.50;1.00
37956;DHT22;23776;51.592;7.180;2023-09-19T00:42:41;15.50;1.00
37956;DHT22;23776;51.592;7.180;2023-09-19T00:45:08;15.40;99.90
37956;DHT22;23776;51.592;7.180;2023-09-19T00:47:50;15.40;99.90
37956;DHT22;23776;51.592;7.180;2023-09-19T00:50:21;15.40;2.10
37956;DHT22;23776;51.592;7.180;2023-09-19T00:52:48;15.40;99.90
37956;DHT22;23776;51.592;7.180;2023-09-19T00:55:16;15.40;99.90
37956;DHT22;23776;51.592;7.180;2023-09-19T00:57:45;13.50;99.90
37956;DHT22;23776;51.592;7.180;2023-09-19T01:00:11;15.40;99.90
37956;DHT22;23776;51.592;7.180;2023-09-19T01:02:42;15.30;99.90
37956;DHT22;23776;51.592;7.180;2023-09-19T01:05:11;15.30;99.90
37956;DHT22;23776;51.592;7.180;2023-09-19T01:07:41;15.30;1.00
37956;DHT22;23776;51.592;7.180;2023-09-19T01:10:08;15.20;1.00
37956;DHT22;23776;51.592;7.180;2023-09-19T01:12:58;15.20;1.00
37956;DHT22;23776;51.592;7.180;2023-09-19T01:27:04;15.10;1.00
37956;DHT22;23776;51.592;7.180;2023-09-19T01:29:46;15.20;99.90
37956;DHT22;23776;51.592;7.180;2023-09-19T01:32:16;15.10;4.10
37956;DHT22;23776;51.592;7.180;2023-09-19T01:34:55;15.10;90.10
37956;DHT22;23776;51.592;7.180;2023-09-19T01:37:24;15.10;56.00
37956;DHT22;23776;51.592;7.180;2023-09-19T01:40:23;15.10;99.90
37956;DHT22;23776;51.592;7.180;2023-09-19T01:48:22;14.90;99.90
37956;DHT22;23776;51.592;7.180;2023-09-19T01:50:58;14.90;99.90
37956;DHT22;23776;51.592;7.180;2023-09-19T01:56:19;14.90;99.90
37956;DHT22;23776;51.592;7.180;2023-09-19T01:58:48;14.90;99.90
37956;DHT22;23776;51.592;7.180;2023-09-19T02:01:20;14.90;99.90
37956;DHT22;23776;51.592;7.180;2023-09-19T02:03:47;14.90;99.90
37956;DHT22;23776;51.592;7.180;2023-09-19T02:06:15;14.80;99.90
37956;DHT22;23776;51.592;7.180;2023-09-19T02:08:41;14.90;99.90
37956;DHT22;23776;51.592;7.180;2023-09-19T02:11:06;14.80;99.90
37956;DHT22;23776;51.592;7.180;2023-09-19T02:13:32;14.80;99.90
37956;DHT22;23776;51.592;7.180;2023-09-19T02:15:58;14.80;99.90
37956;DHT22;23776;51.592;7.180;2023-09-19T02:18:24;14.70;99.90
37956;DHT22;23776;51.592;7.180;2023-09-19T02:20:53;14.70;99.90
37956;DHT22;23776;51.592;7.180;2023-09-19T02:23:19;14.60;99.90
37956;DHT22;23776;51.592;7.180;2023-09-19T02:25:55;14.70;99.90
37956;DHT22;23776;51.592;7.180;2023-09-19T02:28:22;14.70;83.50
37956;DHT22;23776;51.592;7.180;2023-09-19T02:30:48;14.70;1.00
37956;DHT22;23776;51.592;7.180;2023-09-19T02:33:14;14.70;99.90
37956;DHT22;23776;51.592;7.180;2023-09-19T02:35:40;14.70;1.00
37956;DHT22;23776;51.592;7.180;2023-09-19T02:38:06;14.60;1.00
37956;DHT22;23776;51.592;7.180;2023-09-19T02:40:33;14.60;99.90
37956;DHT22;23776;51.592;7.180;2023-09-19T02:43:01;14.60;99.90
37956;DHT22;23776;51.592;7.180;2023-09-19T02:45:27;14.60;1.00
37956;DHT22;23776;51.592;7.180;2023-09-19T02:47:53;14.60;99.90
37956;DHT22;23776;51.592;7.180;2023-09-19T02:50:20;14.50;99.90
37956;DHT22;23776;51.592;7.180;2023-09-19T02:52:46;14.50;99.90
37956;DHT22;23776;51.592;7.180;2023-09-19T02:55:17;14.50;87.10
37956;DHT22;23776;51.592;7.180;2023-09-19T03:00:13;14.60;75.50
37956;DHT22;23776;51.592;7.180;2023-09-19T03:02:38;14.60;1.00
37956;DHT22;23776;51.592;7.180;2023-09-19T03:05:07;14.60;99.90
37956;DHT22;23776;51.592;7.180;2023-09-19T03:07:33;14.60;1.00
37956;DHT22;23776;51.592;7.180;2023-09-19T03:09:59;14.60;1.00
37956;DHT22;23776;51.592;7.180;2023-09-19T03:12:26;14.60;2.30
37956;DHT22;23776;51.592;7.180;2023-09-19T03:14:52;14.70;99.90
37956;DHT22;23776;51.592;7.180;2023-09-19T03:17:18;14.60;2.10
37956;DHT22;23776;51.592;7.180;2023-09-19T03:19:45;14.70;99.90
37956;DHT22;23776;51.592;7.180;2023-09-19T03:22:13;14.70;99.90
37956;DHT22;23776;51.592;7.180;2023-09-19T03:24:38;14.60;99.90
37956;DHT22;23776;51.592;7.180;2023-09-19T03:27:04;14.60;99.90
37956;DHT22;23776;51.592;7.180;2023-09-19T03:29:30;14.60;99.90
37956;DHT22;23776;51.592;7.180;2023-09-19T03:31:55;14.50;99.90
37956;DHT22;23776;51.592;7.180;2023-09-19T03:34:21;14.50;99.90
37956;DHT22;23776;51.592;7.180;2023-09-19T03:36:46;14.60;99.90
37956;DHT22;23776;51.592;7.180;2023-09-19T03:39:12;14.50;99.90
37956;DHT22;23776;51.592;7.180;2023-09-19T03:41:41;14.50;19.30
37956;DHT22;23776;51.592;7.180;2023-09-19T03:44:07;14.60;57.70
37956;DHT22;23776;51.592;7.180;2023-09-19T03:46:32;14.50;99.90
37956;DHT22;23776;51.592;7.180;2023-09-19T03:48:59;14.40;99.90
37956;DHT22;23776;51.592;7.180;2023-09-19T03:51:25;14.40;93.60
37956;DHT22;23776;51.592;7.180;2023-09-19T03:53:51;14.40;40.90
37956;DHT22;23776;51.592;7.180;2023-09-19T03:56:17;14.40;99.90
37956;DHT22;23776;51.592;7.180;2023-09-19T03:58:42;14.40;99.90
37956;DHT22;23776;51.592;7.180;2023-09-19T04:01:08;14.30;99.90
37956;DHT22;23776;51.592;7.180;2023-09-19T04:03:34;14.30;31.10
37956;DHT22;23776;51.592;7.180;2023-09-19T04:06:14;14.30;1.00
37956;DHT22;23776;51.592;7.180;2023-09-19T04:08:40;14.30;1.00
37956;DHT22;23776;51.592;7.180;2023-09-19T04:11:05;14.30;1.00
37956;DHT22;23776;51.592;7.180;2023-09-19T04:13:31;14.30;1.00
37956;DHT22;23776;51.592;7.180;2023-09-19T04:15:57;14.20;1.00
37956;DHT22;23776;51.592;7.180;2023-09-19T04:18:23;14.20;1.00
37956;DHT22;23776;51.592;7.180;2023-09-19T04:20:51;14.30;1.00
37956;DHT22;23776;51.592;7.180;2023-09-19T04:23:17;14.30;1.00
37956;DHT22;23776;51.592;7.180;2023-09-19T04:25:45;14.20;1.00
37956;DHT22;23776;51.592;7.180;2023-09-19T04:28:11;14.20;1.00
37956;DHT22;23776;51.592;7.180;2023-09-19T04:30:39;14.20;1.00
37956;DHT22;23776;51.592;7.180;2023-09-19T04:33:08;14.20;99.90
37956;DHT22;23776;51.592;7.180;2023-09-19T04:35:34;14.10;99.90
37956;DHT22;23776;51.592;7.180;2023-09-19T04:38:00;14.20;99.90
37956;DHT22;23776;51.592;7.180;2023-09-19T04:40:26;14.10;99.90
37956;DHT22;23776;51.592;7.180;2023-09-19T04:42:57;14.10;99.90
37956;DHT22;23776;51.592;7.180;2023-09-19T04:45:24;14.20;99.90
37956;DHT22;23776;51.592;7.180;2023-09-19T04:47:49;14.20;99.90
37956;DHT22;23776;51.592;7.180;2023-09-19T04:50:15;14.20;99.90
37956;DHT22;23776;51.592;7.180;2023-09-19T04:52:43;14.20;99.90
37956;DHT22;23776;51.592;7.180;2023-09-19T04:55:16;14.20;99.90
37956;DHT22;23776;51.592;7.180;2023-09-19T04:57:51;14.20;99.90
37956;DHT22;23776;51.592;7.180;2023-09-19T05:00:20;14.10;99.90
37956;DHT22;23776;51.592;7.180;2023-09-19T05:02:50;14.10;99.90
37956;DHT22;23776;51.592;7.180;2023-09-19T05:05:16;14.20;99.90
37956;DHT22;23776;51.592;7.180;2023-09-19T05:07:42;14.00;92.90
37956;DHT22;23776;51.592;7.180;2023-09-19T05:10:08;14.20;52.30
37956;DHT22;23776;51.592;7.180;2023-09-19T05:12:35;14.20;56.70
37956;DHT22;23776;51.592;7.180;2023-09-19T05:15:04;14.20;77.50
37956;DHT22;23776;51.592;7.180;2023-09-19T05:17:32;14.20;79.30
37956;DHT22;23776;51.592;7.180;2023-09-19T05:19:58;14.20;99.90
37956;DHT22;23776;51.592;7.180;2023-09-19T05:22:26;14.10;99.90
37956;DHT22;23776;51.592;7.180;2023-09-19T05:24:52;14.20;99.90
37956;DHT22;23776;51.592;7.180;2023-09-19T05:27:18;14.20;99.90
37956;DHT22;23776;51.592;7.180;2023-09-19T05:29:46;14.20;99.90
37956;DHT22;23776;51.592;7.180;2023-09-19T05:32:12;14.20;99.90
37956;DHT22;23776;51.592;7.180;2023-09-19T05:34:38;14.20;99.90
37956;DHT22;23776;51.592;7.180;2023-09-19T05:37:04;14.30;99.90
37956;DHT22;23776;51.592;7.180;2023-09-19T05:39:33;14.30;99.90
37956;DHT22;23776;51.592;7.180;2023-09-19T05:41:58;14.30;99.90
37956;DHT22;23776;51.592;7.180;2023-09-19T05:44:25;14.30;99.90
37956;DHT22;23776;51.592;7.180;2023-09-19T05:46:51;14.40;99.90
37956;DHT22;23776;51.592;7.180;2023-09-19T05:49:17;14.40;99.90
37956;DHT22;23776;51.592;7.180;2023-09-19T05:51:43;14.30;99.90
37956;DHT22;23776;51.592;7.180;2023-09-19T05:54:08;14.40;99.90
37956;DHT22;23776;51.592;7.180;2023-09-19T05:56:34;14.50;99.90
37956;DHT22;23776;51.592;7.180;2023-09-19T05:59:00;14.60;50.40
37956;DHT22;23776;51.592;7.180;2023-09-19T06:01:25;14.60;11.00
37956;DHT22;23776;51.592;7.180;2023-09-19T06:03:52;14.60;1.00
37956;DHT22;23776;51.592;7.180;2023-09-19T06:06:18;14.70;1.00
37956;DHT22;23776;51.592;7.180;2023-09-19T06:08:44;14.70;1.00
37956;DHT22;23776;51.592;7.180;2023-09-19T06:11:10;14.80;99.90
37956;DHT22;23776;51.592;7.180;2023-09-19T06:13:36;14.80;99.90
37956;DHT22;23776;51.592;7.180;2023-09-19T06:16:05;14.80;99.90
37956;DHT22;23776;51.592;7.180;2023-09-19T06:18:31;14.90;99.90
37956;DHT22;23776;51.592;7.180;2023-09-19T06:20:59;14.90;99.90
37956;DHT22;23776;51.592;7.180;2023-09-19T06:23:25;15.00;1.00
37956;DHT22;23776;51.592;7.180;2023-09-19T06:25:52;15.00;99.90
37956;DHT22;23776;51.592;7.180;2023-09-19T06:28:19;15.00;99.90
37956;DHT22;23776;51.592;7.180;2023-09-19T06:30:49;15.00;99.90
37956;DHT22;23776;51.592;7.180;2023-09-19T06:33:15;15.00;99.90
37956;DHT22;23776;51.592;7.180;2023-09-19T06:35:41;15.10;61.70
37956;DHT22;23776;51.592;7.180;2023-09-19T06:38:07;15.10;1.00
37956;DHT22;23776;51.592;7.180;2023-09-19T06:40:34;15.20;1.00
37956;DHT22;23776;51.592;7.180;2023-09-19T06:43:00;15.10;1.00
37956;DHT22;23776;51.592;7.180;2023-09-19T06:45:27;15.20;1.00
37956;DHT22;23776;51.592;7.180;2023-09-19T06:47:53;15.30;99.90
37956;DHT22;23776;51.592;7.180;2023-09-19T06:50:21;15.30;99.90
37956;DHT22;23776;51.592;7.180;2023-09-19T06:52:51;15.30;99.90
37956;DHT22;23776;51.592;7.180;2023-09-19T06:55:19;15.30;99.90
37956;DHT22;23776;51.592;7.180;2023-09-19T06:57:46;15.40;45.50
37956;DHT22;23776;51.592;7.180;2023-09-19T07:00:13;15.40;18.60
37956;DHT22;23776;51.592;7.180;2023-09-19T07:03:07;15.40;1.00
37956;DHT22;23776;51.592;7.180;2023-09-19T07:05:39;15.40;1.00
37956;DHT22;23776;51.592;7.180;2023-09-19T07:08:06;15.50;1.00
37956;DHT22;23776;51.592;7.180;2023-09-19T07:10:32;15.50;1.00
37956;DHT22;23776;51.592;7.180;2023-09-19T07:13:06;15.50;1.00
37956;DHT22;23776;51.592;7.180;2023-09-19T07:15:34;15.50;1.00
37956;DHT22;23776;51.592;7.180;2023-09-19T07:18:07;15.60;1.00
37956;DHT22;23776;51.592;7.180;2023-09-19T07:20:36;15.60;1.00
37956;DHT22;23776;51.592;7.180;2023-09-19T07:23:02;15.60;1.00
37956;DHT22;23776;51.592;7.180;2023-09-19T07:25:28;15.70;1.00
37956;DHT22;23776;51.592;7.180;2023-09-19T07:28:00;15.80;1.00
37956;DHT22;23776;51.592;7.180;2023-09-19T07:30:26;15.80;1.00
37956;DHT22;23776;51.592;7.180;2023-09-19T07:32:52;15.90;1.00
37956;DHT22;23776;51.592;7.180;2023-09-19T07:35:18;15.90;1.00
37956;DHT22;23776;51.592;7.180;2023-09-19T07:37:48;15.90;99.90
37956;DHT22;23776;51.592;7.180;2023-09-19T07:40:17;16.00;99.90
37956;DHT22;23776;51.592;7.180;2023-09-19T07:42:43;16.00;99.90
37956;DHT22;23776;51.592;7.180;2023-09-19T07:45:10;16.10;99.90
37956;DHT22;23776;51.592;7.180;2023-09-19T07:47:46;16.10;99.90
37956;DHT22;23776;51.592;7.180;2023-09-19T07:50:13;16.10;99.90
37956;DHT22;23776;51.592;7.180;2023-09-19T07:52:38;16.20;99.90
37956;DHT22;23776;51.592;7.180;2023-09-19T07:55:08;16.20;99.90
37956;DHT22;23776;51.592;7.180;2023-09-19T07:57:38;16.20;99.90
37956;DHT22;23776;51.592;7.180;2023-09-19T08:00:04;16.20;99.90
37956;DHT22;23776;51.592;7.180;2023-09-19T08:02:35;16.20;99.90
37956;DHT22;23776;51.592;7.180;2023-09-19T08:05:03;16.30;99.90
37956;DHT22;23776;51.592;7.180;2023-09-19T08:07:32;16.40;99.90
37956;DHT22;23776;51.592;7.180;2023-09-19T08:09:58;16.40;99.90
37956;DHT22;23776;51.592;7.180;2023-09-19T08:12:24;16.40;99.90
37956;DHT22;23776;51.592;7.180;2023-09-19T08:14:50;16.50;99.90
37956;DHT22;23776;51.592;7.180;2023-09-19T08:17:16;16.60;99.90
37956;DHT22;23776;51.592;7.180;2023-09-19T08:19:42;16.60;99.90
37956;DHT22;23776;51.592;7.180;2023-09-19T08:22:10;16.60;90.90
37956;DHT22;23776;51.592;7.180;2023-09-19T08:24:36;16.70;82.70
37956;DHT22;23776;51.592;7.180;2023-09-19T08:27:03;16.80;50.90
37956;DHT22;23776;51.592;7.180;2023-09-19T08:29:30;16.80;56.90
37956;DHT22;23776;51.592;7.180;2023-09-19T08:31:57;16.80;1.00
37956;DHT22;23776;51.592;7.180;2023-09-19T08:34:23;16.80;1.00
37956;DHT22;23776;51.592;7.180;2023-09-19T08:36:55;16.70;1.00
37956;DHT22;23776;51.592;7.180;2023-09-19T08:41:57;16.80;1.00
37956;DHT22;23776;51.592;7.180;2023-09-19T08:44:24;16.80;1.00
37956;DHT22;23776;51.592;7.180;2023-09-19T08:46:55;16.90;1.00
37956;DHT22;23776;51.592;7.180;2023-09-19T08:49:41;17.00;1.00
37956;DHT22;23776;51.592;7.180;2023-09-19T08:52:32;17.00;1.00
37956;DHT22;23776;51.592;7.180;2023-09-19T08:55:02;17.20;1.00
37956;DHT22;23776;51.592;7.180;2023-09-19T08:57:36;17.20;1.00
37956;DHT22;23776;51.592;7.180;2023-09-19T09:00:07;17.30;99.90
37956;DHT22;23776;51.592;7.180;2023-09-19T09:02:40;17.40;99.90
37956;DHT22;23776;51.592;7.180;2023-09-19T09:05:08;17.40;99.90
37956;DHT22;23776;51.592;7.180;2023-09-19T09:07:39;17.40;99.90
37956;DHT22;23776;51.592;7.180;2023-09-19T09:10:06;17.50;99.90
37956;DHT22;23776;51.592;7.180;2023-09-19T09:12:33;17.50;99.90
37956;DHT22;23776;51.592;7.180;2023-09-19T09:15:00;17.70;99.90
37956;DHT22;23776;51.592;7.180;2023-09-19T09:17:26;17.70;99.90
37956;DHT22;23776;51.592;7.180;2023-09-19T09:19:54;17.90;99.90
37956;DHT22;23776;51.592;7.180;2023-09-19T09:22:20;18.00;99.90
37956;DHT22;23776;51.592;7.180;2023-09-19T09:24:54;18.10;99.90
37956;DHT22;23776;51.592;7.180;2023-09-19T09:27:20;18.10;99.90
37956;DHT22;23776;51.592;7.180;2023-09-19T09:29:47;18.10;92.30
37956;DHT22;23776;51.592;7.180;2023-09-19T09:32:17;18.10;77.80
37956;DHT22;23776;51.592;7.180;2023-09-19T09:34:44;19.40;71.20
37956;DHT22;23776;51.592;7.180;2023-09-19T09:37:17;18.20;50.90
37956;DHT22;23776;51.592;7.180;2023-09-19T09:39:53;18.20;34.70
37956;DHT22;23776;51.592;7.180;2023-09-19T09:42:36;18.30;24.30
37956;DHT22;23776;51.592;7.180;2023-09-19T09:45:33;18.40;1.00
37956;DHT22;23776;51.592;7.180;2023-09-19T09:48:00;18.50;1.00
37956;DHT22;23776;51.592;7.180;2023-09-19T09:50:30;18.70;1.00
37956;DHT22;23776;51.592;7.180;2023-09-19T09:53:22;18.50;1.00
37956;DHT22;23776;51.592;7.180;2023-09-19T09:56:01;18.50;1.00
37956;DHT22;23776;51.592;7.180;2023-09-19T09:58:51;18.50;1.00
37956;DHT22;23776;51.592;7.180;2023-09-19T10:01:20;18.60;1.00
37956;DHT22;23776;51.592;7.180;2023-09-19T10:03:46;18.60;1.00
37956;DHT22;23776;51.592;7.180;2023-09-19T10:06:17;18.70;1.00
37956;DHT22;23776;51.592;7.180;2023-09-19T10:09:02;18.60;1.00
37956;DHT22;23776;51.592;7.180;2023-09-19T10:11:44;18.70;1.00
37956;DHT22;23776;51.592;7.180;2023-09-19T10:14:12;18.80;1.00
37956;DHT22;23776;51.592;7.180;2023-09-19T10:16:49;18.70;1.00
37956;DHT22;23776;51.592;7.180;2023-09-19T10:19:37;18.90;1.00
37956;DHT22;23776;51.592;7.180;2023-09-19T10:22:12;19.10;1.00
37956;DHT22;23776;51.592;7.180;2023-09-19T10:24:47;19.30;1.00
37956;DHT22;23776;51.592;7.180;2023-09-19T10:27:13;19.50;1.00
37956;DHT22;23776;51.592;7.180;2023-09-19T10:29:46;19.50;99.90
37956;DHT22;23776;51.592;7.180;2023-09-19T10:32:15;19.50;99.90
37956;DHT22;23776;51.592;7.180;2023-09-19T10:34:47;19.40;99.90
37956;DHT22;23776;51.592;7.180;2023-09-19T10:37:13;19.60;99.90
37956;DHT22;23776;51.592;7.180;2023-09-19T10:39:40;19.80;99.90
37956;DHT22;23776;51.592;7.180;2023-09-19T10:42:07;19.90;99.90
37956;DHT22;23776;51.592;7.180;2023-09-19T10:44:38;19.90;99.90
37956;DHT22;23776;51.592;7.180;2023-09-19T10:47:10;19.80;99.90
37956;DHT22;23776;51.592;7.180;2023-09-19T10:49:43;19.60;99.90
37956;DHT22;23776;51.592;7.180;2023-09-19T10:52:13;19.40;99.90
37956;DHT22;23776;51.592;7.180;2023-09-19T10:54:46;19.50;99.90
37956;DHT22;23776;51.592;7.180;2023-09-19T10:57:21;19.70;99.90
37956;DHT22;23776;51.592;7.180;2023-09-19T11:00:06;19.80;99.90
37956;DHT22;23776;51.592;7.180;2023-09-19T11:05:37;19.90;99.90
37956;DHT22;23776;51.592;7.180;2023-09-19T11:08:09;20.00;99.90
37956;DHT22;23776;51.592;7.180;2023-09-19T11:10:46;20.30;99.90
37956;DHT22;23776;51.592;7.180;2023-09-19T11:13:31;20.50;99.90
37956;DHT22;23776;51.592;7.180;2023-09-19T11:26:50;21.40;99.90
37956;DHT22;23776;51.592;7.180;2023-09-19T11:29:27;21.20;99.90
37956;DHT22;23776;51.592;7.180;2023-09-19T11:31:55;21.60;99.90
37956;DHT22;23776;51.592;7.180;2023-09-19T11:34:37;22.20;99.90
37956;DHT22;23776;51.592;7.180;2023-09-19T11:40:08;22.70;99.90
37956;DHT22;23776;51.592;7.180;2023-09-19T11:42:48;22.70;99.90
37956;DHT22;23776;51.592;7.180;2023-09-19T11:48:18;22.60;99.90
37956;DHT22;23776;51.592;7.180;2023-09-19T11:50:45;22.40;99.90
37956;DHT22;23776;51.592;7.180;2023-09-19T11:53:13;22.30;99.90
37956;DHT22;23776;51.592;7.180;2023-09-19T11:55:40;22.20;99.90
37956;DHT22;23776;51.592;7.180;2023-09-19T11:58:08;22.00;99.90
37956;DHT22;23776;51.592;7.180;2023-09-19T12:00:35;22.10;99.90
37956;DHT22;23776;51.592;7.180;2023-09-19T12:03:10;22.30;99.90
37956;DHT22;23776;51.592;7.180;2023-09-19T12:05:44;22.40;99.90
37956;DHT22;23776;51.592;7.180;2023-09-19T12:08:10;22.10;99.90
37956;DHT22;23776;51.592;7.180;2023-09-19T12:10:48;21.60;99.90
37956;DHT22;23776;51.592;7.180;2023-09-19T12:13:17;21.70;99.90
37956;DHT22;23776;51.592;7.180;2023-09-19T12:15:43;21.80;99.90
37956;DHT22;23776;51.592;7.180;2023-09-19T12:18:25;22.00;99.90
37956;DHT22;23776;51.592;7.180;2023-09-19T12:20:51;22.00;99.90
37956;DHT22;23776;51.592;7.180;2023-09-19T12:23:17;22.30;99.90
37956;DHT22;23776;51.592;7.180;2023-09-19T12:25:43;22.60;99.90
37956;DHT22;23776;51.592;7.180;2023-09-19T12:28:12;22.80;99.90
37956;DHT22;23776;51.592;7.180;2023-09-19T12:30:37;22.60;99.90
37956;DHT22;23776;51.592;7.180;2023-09-19T12:33:15;22.70;99.90
37956;DHT22;23776;51.592;7.180;2023-09-19T12:35:41;23.20;99.90
37956;DHT22;23776;51.592;7.180;2023-09-19T12:38:08;23.20;99.90
37956;DHT22;23776;51.592;7.180;2023-09-19T12:40:35;22.90;99.90
37956;DHT22;23776;51.592;7.180;2023-09-19T12:43:03;22.80;99.90
37956;DHT22;23776;51.592;7.180;2023-09-19T12:45:31;22.80;99.90
37956;DHT22;23776;51.592;7.180;2023-09-19T12:51:10;22.90;99.90
37956;DHT22;23776;51.592;7.180;2023-09-19T12:56:11;23.80;99.90
37956;DHT22;23776;51.592;7.180;2023-09-19T12:58:54;24.00;99.90
37956;DHT22;23776;51.592;7.180;2023-09-19T13:01:20;23.90;99.90
37956;DHT22;23776;51.592;7.180;2023-09-19T13:04:09;23.60;99.90
37956;DHT22;23776;51.592;7.180;2023-09-19T13:06:36;23.70;99.90
37956;DHT22;23776;51.592;7.180;2023-09-19T13:09:08;23.60;99.90
37956;DHT22;23776;51.592;7.180;2023-09-19T13:11:38;23.10;99.90
37956;DHT22;23776;51.592;7.180;2023-09-19T13:19:46;22.70;99.90
37956;DHT22;23776;51.592;7.180;2023-09-19T13:22:38;22.70;99.90
37956;DHT22;23776;51.592;7.180;2023-09-19T13:25:09;22.80;99.90
37956;DHT22;23776;51.592;7.180;2023-09-19T13:27:40;23.10;99.90
37956;DHT22;23776;51.592;7.180;2023-09-19T13:30:07;23.10;99.90
37956;DHT22;23776;51.592;7.180;2023-09-19T13:32:33;23.00;99.90
37956;DHT22;23776;51.592;7.180;2023-09-19T13:34:59;22.80;99.90
37956;DHT22;23776;51.592;7.180;2023-09-19T13:37:24;22.60;99.90
37956;DHT22;23776;51.592;7.180;2023-09-19T13:39:52;22.30;99.90
37956;DHT22;23776;51.592;7.180;2023-09-19T13:42:17;22.30;99.90
37956;DHT22;23776;51.592;7.180;2023-09-19T13:44:44;22.50;99.90
37956;DHT22;23776;51.592;7.180;2023-09-19T13:47:09;22.70;99.90
37956;DHT22;23776;51.592;7.180;2023-09-19T13:49:36;22.70;99.90
37956;DHT22;23776;51.592;7.180;2023-09-19T13:52:02;22.70;99.90
37956;DHT22;23776;51.592;7.180;2023-09-19T13:54:32;22.70;99.90
37956;DHT22;23776;51.592;7.180;2023-09-19T13:56:58;22.80;99.90
37956;DHT22;23776;51.592;7.180;2023-09-19T13:59:24;22.70;99.90
37956;DHT22;23776;51.592;7.180;2023-09-19T14:01:50;22.60;99.90
37956;DHT22;23776;51.592;7.180;2023-09-19T14:04:19;22.40;99.90
37956;DHT22;23776;51.592;7.180;2023-09-19T14:06:46;22.00;99.90
37956;DHT22;23776;51.592;7.180;2023-09-19T14:09:12;21.80;99.90
37956;DHT22;23776;51.592;7.180;2023-09-19T14:11:39;21.60;99.90
37956;DHT22;23776;51.592;7.180;2023-09-19T14:14:05;21.50;99.90
37956;DHT22;23776;51.592;7.180;2023-09-19T14:16:31;21.40;99.90
37956;DHT22;23776;51.592;7.180;2023-09-19T14:18:59;21.40;99.90
37956;DHT22;23776;51.592;7.180;2023-09-19T14:21:26;21.30;99.90
37956;DHT22;23776;51.592;7.180;2023-09-19T14:23:51;21.10;99.90
37956;DHT22;23776;51.592;7.180;2023-09-19T14:26:20;21.00;99.90
37956;DHT22;23776;51.592;7.180;2023-09-19T14:28:45;20.90;99.90
37956;DHT22;23776;51.592;7.180;2023-09-19T14:31:11;20.70;99.90
37956;DHT22;23776;51.592;7.180;2023-09-19T14:33:37;20.50;99.90
37956;DHT22;23776;51.592;7.180;2023-09-19T14:36:08;20.50;99.90
37956;DHT22;23776;51.592;7.180;2023-09-19T14:38:36;20.40;99.90
37956;DHT22;23776;51.592;7.180;2023-09-19T14:41:03;20.40;99.90
37956;DHT22;23776;51.592;7.180;2023-09-19T14:43:29;22.20;99.90
37956;DHT22;23776;51.592;7.180;2023-09-19T14:45:56;20.10;99.90
37956;DHT22;23776;51.592;7.180;2023-09-19T14:48:23;20.20;99.90
37956;DHT22;23776;51.592;7.180;2023-09-19T14:50:52;20.20;99.90
37956;DHT22;23776;51.592;7.180;2023-09-19T14:53:18;20.20;99.90
37956;DHT22;23776;51.592;7.180;2023-09-19T14:55:44;20.20;99.90
37956;DHT22;23776;51.592;7.180;2023-09-19T14:58:10;20.20;99.90
37956;DHT22;23776;51.592;7.180;2023-09-19T15:00:37;20.10;99.90
37956;DHT22;23776;51.592;7.180;2023-09-19T15:03:03;20.00;99.90
37956;DHT22;23776;51.592;7.180;2023-09-19T15:05:29;20.00;99.90
37956;DHT22;23776;51.592;7.180;2023-09-19T15:07:56;20.10;99.90
37956;DHT22;23776;51.592;7.180;2023-09-19T15:10:23;20.10;99.90
37956;DHT22;23776;51.592;7.180;2023-09-19T15:12:48;20.10;99.90
37956;DHT22;23776;51.592;7.180;2023-09-19T15:15:14;20.10;99.90
37956;DHT22;23776;51.592;7.180;2023-09-19T15:17:40;20.10;99.90
37956;DHT22;23776;51.592;7.180;2023-09-19T15:20:06;20.10;99.90
37956;DHT22;23776;51.592;7.180;2023-09-19T15:22:33;20.20;99.90
37956;DHT22;23776;51.592;7.180;2023-09-19T15:25:00;20.20;99.90
37956;DHT22;23776;51.592;7.180;2023-09-19T15:27:27;20.10;99.90
37956;DHT22;23776;51.592;7.180;2023-09-19T15:32:19;20.00;99.90
37956;DHT22;23776;51.592;7.180;2023-09-19T15:34:47;20.00;99.90
37956;DHT22;23776;51.592;7.180;2023-09-19T15:37:13;20.00;99.90
37956;DHT22;23776;51.592;7.180;2023-09-19T15:39:39;20.10;99.90
37956;DHT22;23776;51.592;7.180;2023-09-19T15:42:04;20.30;99.90
37956;DHT22;23776;51.592;7.180;2023-09-19T15:44:30;20.50;99.90
37956;DHT22;23776;51.592;7.180;2023-09-19T15:46:56;20.50;99.90
37956;DHT22;23776;51.592;7.180;2023-09-19T15:49:22;20.70;99.90
37956;DHT22;23776;51.592;7.180;2023-09-19T15:51:48;21.10;99.90
37956;DHT22;23776;51.592;7.180;2023-09-19T15:54:15;21.10;99.90
37956;DHT22;23776;51.592;7.180;2023-09-19T15:56:45;21.00;99.90
37956;DHT22;23776;51.592;7.180;2023-09-19T15:59:11;21.00;99.90
37956;DHT22;23776;51.592;7.180;2023-09-19T16:01:40;20.90;99.90
37956;DHT22;23776;51.592;7.180;2023-09-19T16:04:08;20.90;99.90
37956;DHT22;23776;51.592;7.180;2023-09-19T16:06:35;20.70;99.90
37956;DHT22;23776;51.592;7.180;2023-09-19T16:09:01;20.60;99.90
37956;DHT22;23776;51.592;7.180;2023-09-19T16:11:31;20.40;99.90
37956;DHT22;23776;51.592;7.180;2023-09-19T16:13:57;20.20;99.90
37956;DHT22;23776;51.592;7.180;2023-09-19T16:16:24;20.10;99.90
37956;DHT22;23776;51.592;7.180;2023-09-19T16:18:53;20.00;99.90
37956;DHT22;23776;51.592;7.180;2023-09-19T16:21:23;19.90;99.90
37956;DHT22;23776;51.592;7.180;2023-09-19T16:23:50;19.80;99.90
37956;DHT22;23776;51.592;7.180;2023-09-19T16:26:17;19.80;99.90
37956;DHT22;23776;51.592;7.180;2023-09-19T16:28:47;19.70;99.90
37956;DHT22;23776;51.592;7.180;2023-09-19T16:31:15;19.70;99.90
37956;DHT22;23776;51.592;7.180;2023-09-19T16:33:44;19.70;99.90
37956;DHT22;23776;51.592;7.180;2023-09-19T16:36:15;19.70;99.90
37956;DHT22;23776;51.592;7.180;2023-09-19T16:38:42;19.60;99.90
37956;DHT22;23776;51.592;7.180;2023-09-19T16:41:08;19.60;99.90
37956;DHT22;23776;51.592;7.180;2023-09-19T16:43:35;19.50;99.90